createdAt,value
2017-10-13T00:00:02.996Z,94.89
2017-10-13T00:01:02.977Z,94.98
2017-10-13T00:02:02.945Z,94.89
2017-10-13T00:03:02.926Z,94.7
2017-10-13T00:04:02.895Z,94.98
2017-10-13T00:05:02.880Z,94.7
2017-10-13T00:06:02.855Z,94.89
2017-10-13T00:07:02.829Z,94.79
2017-10-13T00:08:02.807Z,94.89
2017-10-13T00:09:02.781Z,94.89
2017-10-13T00:10:02.763Z,95.36
2017-10-13T00:11:02.733Z,95.36
2017-10-13T00:12:02.713Z,95.27
2017-10-13T00:13:02.369Z,95.17
2017-10-13T00:14:02.663Z,95.08
2017-10-13T00:15:02.641Z,95.08
2017-10-13T00:16:02.620Z,95.08
2017-10-13T00:17:02.596Z,95.46
2017-10-13T00:18:02.570Z,95.22
2017-10-13T00:19:02.551Z,95.36
2017-10-13T00:20:02.532Z,94.93
2017-10-13T00:21:02.505Z,95.22
2017-10-13T00:22:02.485Z,95.03
2017-10-13T00:23:02.448Z,94.93
2017-10-13T00:24:02.433Z,95.41
2017-10-13T00:25:02.089Z,95.03
2017-10-13T00:26:02.391Z,94.93
2017-10-13T00:27:02.359Z,95.03
2017-10-13T00:28:02.343Z,95.03
2017-10-13T00:29:02.317Z,94.74
2017-10-13T00:30:02.291Z,94.93
2017-10-13T00:31:02.275Z,94.84
2017-10-13T00:32:02.249Z,94.65
2017-10-13T00:33:02.221Z,95.03
2017-10-13T00:34:02.201Z,95.32
2017-10-13T00:35:02.185Z,94.65
2017-10-13T00:36:02.151Z,94.84
2017-10-13T00:37:02.127Z,95.41
2017-10-13T00:38:02.108Z,95.41
2017-10-13T00:39:02.088Z,95.12
2017-10-13T00:40:02.057Z,95.32
2017-10-13T00:41:02.032Z,95.22
2017-10-13T00:42:02.003Z,95.32
2017-10-13T00:43:01.998Z,95.41
2017-10-13T00:44:01.962Z,95.32
2017-10-13T00:45:01.936Z,95.03
2017-10-13T00:46:01.916Z,95.03
2017-10-13T00:47:01.893Z,95.32
2017-10-13T00:48:01.873Z,95.41
2017-10-13T00:49:01.853Z,95.41
2017-10-13T00:50:01.830Z,95.32
2017-10-13T00:51:01.802Z,95.41
2017-10-13T00:52:01.775Z,95.41
2017-10-13T00:53:01.758Z,95.22
2017-10-13T00:54:01.731Z,95.41
2017-10-13T00:55:01.701Z,95.41
2017-10-13T00:56:01.692Z,95.22
2017-10-13T00:57:01.662Z,95.22
2017-10-13T00:58:01.638Z,95.41
2017-10-13T00:59:01.620Z,95.22
2017-10-13T01:00:01.592Z,95.22
2017-10-13T01:01:01.564Z,95.22
2017-10-13T01:02:01.547Z,94.84
2017-10-13T01:03:01.518Z,95.12
2017-10-13T01:04:01.494Z,94.93
2017-10-13T01:05:01.477Z,94.93
2017-10-13T01:06:01.451Z,94.84
2017-10-13T01:07:01.424Z,94.84
2017-10-13T01:08:01.404Z,94.84
2017-10-13T01:09:01.374Z,95.03
2017-10-13T01:10:01.359Z,94.84
2017-10-13T01:11:01.357Z,94.84
2017-10-13T01:12:01.316Z,94.84
2017-10-13T01:13:01.284Z,94.84
2017-10-13T01:14:01.262Z,94.84
2017-10-13T01:15:01.235Z,94.84
2017-10-13T01:16:01.214Z,94.84
2017-10-13T01:17:01.188Z,95.03
2017-10-13T01:18:01.169Z,95.12
2017-10-13T01:19:01.141Z,94.84
2017-10-13T01:20:01.126Z,94.84
2017-10-13T01:21:01.094Z,94.74
2017-10-13T01:22:00.752Z,94.84
2017-10-13T01:23:01.052Z,94.84
2017-10-13T01:24:00.708Z,95.03
2017-10-13T01:25:01.004Z,95.22
2017-10-13T01:26:00.979Z,94.84
2017-10-13T01:27:00.962Z,95.12
2017-10-13T01:28:00.611Z,94.84
2017-10-13T01:29:00.906Z,95.22
2017-10-13T01:30:00.889Z,95.22
2017-10-13T01:31:00.857Z,94.74
2017-10-13T01:32:00.838Z,94.93
2017-10-13T01:33:00.807Z,94.93
2017-10-13T01:34:00.789Z,95.12
2017-10-13T01:35:00.767Z,94.93
2017-10-13T01:36:00.747Z,94.74
2017-10-13T01:37:00.726Z,95.03
2017-10-13T01:38:00.698Z,94.84
2017-10-13T01:39:00.668Z,94.93
2017-10-13T01:40:00.662Z,95.03
2017-10-13T01:41:00.309Z,94.79
2017-10-13T01:42:00.598Z,95.27
2017-10-13T01:43:00.576Z,95.46
2017-10-13T01:44:00.560Z,95.22
2017-10-13T01:45:00.537Z,95.41
2017-10-13T01:46:00.501Z,95.36
2017-10-13T01:47:00.481Z,95.17
2017-10-13T01:48:00.465Z,95.08
2017-10-13T01:49:00.445Z,95.08
2017-10-13T01:50:00.410Z,95.17
2017-10-13T01:51:00.389Z,95.17
2017-10-13T01:52:00.364Z,95.27
2017-10-13T01:53:00.344Z,95.27
2017-10-13T01:54:00.321Z,94.79
2017-10-13T01:55:00.292Z,94.98
2017-10-13T01:56:00.275Z,94.89
2017-10-13T01:57:00.249Z,94.98
2017-10-13T01:58:00.238Z,94.98
2017-10-13T01:59:00.200Z,94.98
2017-10-13T02:00:00.179Z,95.08
2017-10-13T02:01:00.158Z,95.08
2017-10-13T02:01:59.809Z,94.7
2017-10-13T02:03:00.106Z,94.7
2017-10-13T02:04:00.083Z,94.89
2017-10-13T02:05:00.062Z,94.51
2017-10-13T02:06:00.037Z,94.79
2017-10-13T02:07:00.014Z,94.89
2017-10-13T02:08:00.035Z,94.98
2017-10-13T02:08:59.963Z,95.08
2017-10-13T02:09:59.943Z,94.79
2017-10-13T02:10:59.917Z,94.89
2017-10-13T02:11:59.581Z,94.98
2017-10-13T02:12:59.878Z,94.6
2017-10-13T02:13:59.845Z,94.7
2017-10-13T02:14:59.828Z,94.7
2017-10-13T02:15:59.796Z,94.51
2017-10-13T02:16:59.780Z,94.98
2017-10-13T02:17:59.752Z,94.7
2017-10-13T02:18:59.737Z,95.17
2017-10-13T02:19:59.712Z,94.51
2017-10-13T02:20:59.684Z,94.51
2017-10-13T02:21:59.657Z,94.7
2017-10-13T02:22:59.630Z,95.08
2017-10-13T02:23:59.627Z,95.08
2017-10-13T02:24:59.589Z,95.65
2017-10-13T02:25:59.253Z,95.75
2017-10-13T02:26:59.537Z,95.65
2017-10-13T02:27:59.519Z,95.27
2017-10-13T02:28:59.513Z,94.98
2017-10-13T02:29:59.466Z,95.17
2017-10-13T02:30:59.446Z,95.08
2017-10-13T02:31:59.425Z,95.65
2017-10-13T02:32:59.399Z,95.56
2017-10-13T02:33:59.391Z,95.56
2017-10-13T02:34:59.362Z,94.79
2017-10-13T02:35:59.335Z,95.75
2017-10-13T02:36:59.310Z,94.98
2017-10-13T02:37:59.280Z,95.56
2017-10-13T02:38:59.257Z,94.89
2017-10-13T02:39:59.235Z,95.12
2017-10-13T02:40:59.212Z,94.65
2017-10-13T02:41:59.192Z,94.84
2017-10-13T02:42:59.169Z,95.12
2017-10-13T02:43:59.140Z,95.03
2017-10-13T02:44:58.795Z,95.08
2017-10-13T02:45:59.090Z,95.65
2017-10-13T02:46:59.070Z,95.27
2017-10-13T02:47:59.053Z,94.79
2017-10-13T02:48:59.024Z,95.75
2017-10-13T02:49:58.996Z,95.08
2017-10-13T02:50:58.974Z,95.75
2017-10-13T02:51:58.979Z,94.98
2017-10-13T02:52:58.926Z,95.27
2017-10-13T02:53:58.903Z,95.51
2017-10-13T02:54:58.880Z,95.79
2017-10-13T02:55:58.858Z,95.65
2017-10-13T02:56:58.835Z,95.56
2017-10-13T02:57:58.813Z,95.56
2017-10-13T02:58:58.790Z,95.79
2017-10-13T02:59:58.765Z,95.32
2017-10-13T03:00:58.744Z,95.36
2017-10-13T03:01:58.721Z,95.41
2017-10-13T03:02:58.691Z,95.65
2017-10-13T03:03:58.668Z,95.32
2017-10-13T03:04:58.645Z,95.36
2017-10-13T03:05:58.623Z,95.27
2017-10-13T03:06:58.604Z,95.56
2017-10-13T03:07:58.577Z,95.27
2017-10-13T03:08:58.555Z,95.36
2017-10-13T03:09:58.525Z,95.56
2017-10-13T03:10:58.524Z,95.27
2017-10-13T03:11:58.478Z,95.6
2017-10-13T03:12:58.463Z,95.36
2017-10-13T03:13:58.432Z,95.6
2017-10-13T03:14:58.405Z,95.36
2017-10-13T03:15:58.386Z,95.36
2017-10-13T03:16:58.363Z,95.36
2017-10-13T03:17:58.337Z,95.75
2017-10-13T03:18:58.318Z,95.56
2017-10-13T03:19:58.290Z,95.56
2017-10-13T03:20:58.271Z,95.56
2017-10-13T03:21:58.254Z,95.56
2017-10-13T03:22:58.223Z,95.65
2017-10-13T03:23:58.213Z,95.75
2017-10-13T03:24:58.175Z,95.75
2017-10-13T03:25:58.145Z,95.36
2017-10-13T03:26:58.125Z,95.46
2017-10-13T03:27:58.105Z,95.36
2017-10-13T03:28:57.755Z,95.46
2017-10-13T03:29:58.054Z,95.36
2017-10-13T03:30:58.030Z,95.36
2017-10-13T03:31:58.006Z,95.46
2017-10-13T03:32:57.981Z,95.56
2017-10-13T03:33:57.971Z,95.36
2017-10-13T03:34:57.938Z,95.46
2017-10-13T03:35:57.919Z,95.46
2017-10-13T03:36:57.892Z,95.46
2017-10-13T03:37:57.864Z,95.46
2017-10-13T03:38:57.844Z,95.36
2017-10-13T03:39:57.818Z,95.36
2017-10-13T03:40:57.794Z,95.46
2017-10-13T03:41:57.774Z,95.46
2017-10-13T03:42:57.761Z,95.46
2017-10-13T03:43:57.736Z,95.22
2017-10-13T03:44:57.702Z,95.46
2017-10-13T03:45:57.682Z,95.36
2017-10-13T03:46:57.651Z,95.46
2017-10-13T03:47:57.628Z,95.51
2017-10-13T03:48:57.610Z,95.17
2017-10-13T03:49:57.588Z,95.41
2017-10-13T03:50:57.565Z,95.51
2017-10-13T03:51:57.536Z,95.51
2017-10-13T03:52:57.508Z,95.6
2017-10-13T03:53:57.482Z,95.51
2017-10-13T03:54:57.465Z,95.22
2017-10-13T03:55:57.442Z,95.27
2017-10-13T03:56:57.420Z,95.27
2017-10-13T03:57:57.392Z,95.46
2017-10-13T03:58:57.369Z,95.17
2017-10-13T03:59:57.345Z,95.56
2017-10-13T04:00:57.320Z,95.27
2017-10-13T04:01:57.301Z,95.27
2017-10-13T04:02:57.286Z,95.84
2017-10-13T04:03:57.270Z,95.27
2017-10-13T04:04:57.229Z,95.46
2017-10-13T04:05:57.205Z,95.94
2017-10-13T04:06:57.181Z,95.56
2017-10-13T04:07:57.168Z,95.75
2017-10-13T04:08:57.136Z,95.65
2017-10-13T04:09:57.121Z,95.65
2017-10-13T04:10:57.093Z,95.75
2017-10-13T04:11:57.061Z,95.75
2017-10-13T04:12:57.057Z,95.56
2017-10-13T04:13:57.015Z,95.84
2017-10-13T04:14:56.990Z,95.56
2017-10-13T04:15:56.965Z,95.75
2017-10-13T04:16:56.941Z,95.65
2017-10-13T04:17:56.922Z,95.56
2017-10-13T04:18:56.895Z,95.65
2017-10-13T04:19:56.882Z,95.65
2017-10-13T04:20:56.849Z,95.84
2017-10-13T04:21:56.825Z,95.75
2017-10-13T04:22:56.806Z,95.65
2017-10-13T04:23:56.777Z,95.65
2017-10-13T04:24:56.758Z,95.65
2017-10-13T04:25:56.411Z,95.56
2017-10-13T04:26:56.705Z,95.65
2017-10-13T04:27:56.684Z,95.56
2017-10-13T04:28:56.661Z,95.36
2017-10-13T04:29:56.635Z,95.46
2017-10-13T04:30:56.613Z,95.84
2017-10-13T04:31:56.608Z,95.27
2017-10-13T04:32:56.571Z,95.65
2017-10-13T04:33:56.547Z,95.56
2017-10-13T04:34:56.200Z,95.56
2017-10-13T04:35:56.520Z,95.65
2017-10-13T04:36:56.470Z,95.56
2017-10-13T04:37:56.458Z,95.46
2017-10-13T04:38:56.425Z,95.56
2017-10-13T04:39:56.399Z,95.46
2017-10-13T04:40:56.379Z,95.75
2017-10-13T04:41:56.356Z,95.84
2017-10-13T04:42:56.332Z,95.65
2017-10-13T04:43:56.307Z,95.75
2017-10-13T04:44:56.280Z,95.65
2017-10-13T04:45:56.259Z,95.56
2017-10-13T04:46:56.229Z,95.56
2017-10-13T04:47:56.215Z,95.75
2017-10-13T04:48:56.193Z,95.65
2017-10-13T04:49:56.164Z,95.56
2017-10-13T04:50:56.139Z,95.56
2017-10-13T04:51:56.113Z,95.56
2017-10-13T04:52:56.091Z,95.46
2017-10-13T04:53:56.066Z,95.46
2017-10-13T04:54:55.730Z,95.65
2017-10-13T04:55:56.022Z,95.56
2017-10-13T04:56:55.995Z,95.56
2017-10-13T04:57:55.981Z,95.56
2017-10-13T04:58:55.951Z,95.84
2017-10-13T04:59:55.946Z,95.84
2017-10-13T05:00:55.907Z,95.46
2017-10-13T05:01:55.884Z,96.12
2017-10-13T05:02:55.862Z,96.22
2017-10-13T05:03:55.832Z,96.31
2017-10-13T05:04:55.811Z,96.22
2017-10-13T05:05:55.784Z,96.31
2017-10-13T05:06:55.766Z,96.22
2017-10-13T05:07:55.738Z,96.31
2017-10-13T05:08:55.708Z,96.41
2017-10-13T05:09:55.697Z,96.31
2017-10-13T05:10:55.667Z,95.84
2017-10-13T05:11:55.668Z,96.22
2017-10-13T05:12:55.621Z,96.17
2017-10-13T05:13:55.614Z,96.17
2017-10-13T05:14:55.573Z,96.27
2017-10-13T05:15:55.547Z,96.17
2017-10-13T05:16:55.531Z,96.27
2017-10-13T05:17:55.502Z,96.08
2017-10-13T05:18:55.481Z,95.6
2017-10-13T05:19:55.455Z,95.22
2017-10-13T05:20:55.439Z,95.22
2017-10-13T05:21:55.416Z,95.22
2017-10-13T05:22:55.389Z,95.65
2017-10-13T05:23:55.368Z,95.36
2017-10-13T05:24:55.339Z,95.46
2017-10-13T05:25:55.319Z,95.27
2017-10-13T05:26:55.286Z,95.36
2017-10-13T05:27:55.265Z,95.7
2017-10-13T05:28:55.247Z,95.56
2017-10-13T05:29:55.226Z,95.46
2017-10-13T05:30:55.195Z,95.75
2017-10-13T05:31:55.177Z,95.46
2017-10-13T05:32:55.155Z,95.65
2017-10-13T05:33:55.128Z,95.56
2017-10-13T05:34:55.105Z,95.46
2017-10-13T05:35:55.084Z,95.56
2017-10-13T05:36:55.053Z,95.17
2017-10-13T05:37:55.038Z,95.56
2017-10-13T05:38:55.008Z,95.27
2017-10-13T05:39:54.990Z,95.08
2017-10-13T05:40:54.643Z,95.08
2017-10-13T05:41:54.944Z,95.08
2017-10-13T05:42:54.918Z,95.46
2017-10-13T05:43:54.898Z,95.46
2017-10-13T05:44:54.872Z,95.36
2017-10-13T05:45:54.852Z,95.56
2017-10-13T05:46:54.821Z,95.27
2017-10-13T05:47:54.815Z,95.36
2017-10-13T05:48:54.781Z,95.46
2017-10-13T05:49:54.755Z,95.56
2017-10-13T05:50:54.727Z,95.65
2017-10-13T05:51:54.714Z,95.56
2017-10-13T05:52:54.696Z,95.36
2017-10-13T05:53:54.662Z,95.56
2017-10-13T05:54:54.637Z,95.36
2017-10-13T05:55:54.621Z,95.65
2017-10-13T05:56:54.594Z,95.56
2017-10-13T05:57:54.572Z,95.56
2017-10-13T05:58:54.226Z,95.36
2017-10-13T05:59:54.528Z,95.36
2017-10-13T06:00:54.500Z,95.56
2017-10-13T06:01:54.478Z,95.46
2017-10-13T06:02:54.456Z,95.46
2017-10-13T06:03:54.428Z,95.46
2017-10-13T06:04:54.410Z,95.65
2017-10-13T06:05:54.390Z,95.46
2017-10-13T06:06:54.034Z,95.65
2017-10-13T06:07:54.335Z,95.65
2017-10-13T06:08:54.316Z,95.27
2017-10-13T06:09:54.284Z,95.08
2017-10-13T06:10:54.269Z,95.08
2017-10-13T06:11:54.246Z,95.17
2017-10-13T06:12:53.899Z,94.98
2017-10-13T06:13:54.196Z,95.27
2017-10-13T06:14:53.857Z,95.17
2017-10-13T06:15:54.152Z,95.08
2017-10-13T06:16:54.126Z,95.61
2017-10-13T06:17:54.102Z,95.08
2017-10-13T06:18:54.084Z,95.12
2017-10-13T06:19:53.738Z,94.93
2017-10-13T06:20:54.033Z,94.93
2017-10-13T06:21:54.013Z,94.27
2017-10-13T06:22:53.989Z,94.37
2017-10-13T06:23:53.970Z,94.74
2017-10-13T06:24:53.620Z,94.74
2017-10-13T06:25:53.918Z,94.56
2017-10-13T06:26:53.577Z,94.65
2017-10-13T06:27:53.878Z,94.56
2017-10-13T06:28:53.852Z,94.74
2017-10-13T06:29:53.828Z,94.74
2017-10-13T06:30:53.807Z,94.74
2017-10-13T06:31:53.781Z,94.74
2017-10-13T06:32:53.756Z,94.46
2017-10-13T06:33:53.738Z,94.37
2017-10-13T06:34:53.714Z,94.65
2017-10-13T06:35:53.688Z,94.65
2017-10-13T06:36:53.666Z,94.74
2017-10-13T06:37:53.647Z,94.56
2017-10-13T06:38:53.620Z,94.56
2017-10-13T06:39:53.596Z,94.46
2017-10-13T06:40:53.572Z,94.84
2017-10-13T06:41:53.561Z,94.65
2017-10-13T06:42:53.529Z,94.46
2017-10-13T06:43:53.504Z,94.27
2017-10-13T06:44:53.485Z,94.7
2017-10-13T06:45:53.470Z,94.7
2017-10-13T06:46:53.440Z,94.79
2017-10-13T06:47:53.411Z,94.7
2017-10-13T06:48:53.401Z,94.6
2017-10-13T06:49:53.373Z,94.51
2017-10-13T06:50:53.342Z,94.6
2017-10-13T06:51:53.324Z,94.89
2017-10-13T06:52:53.301Z,94.79
2017-10-13T06:53:53.274Z,94.89
2017-10-13T06:54:53.256Z,94.22
2017-10-13T06:55:53.236Z,94.51
2017-10-13T06:56:53.216Z,94.51
2017-10-13T06:57:53.188Z,94.41
2017-10-13T06:58:53.167Z,94.32
2017-10-13T06:59:53.141Z,94.12
2017-10-13T07:00:53.118Z,94.32
2017-10-13T07:01:53.095Z,94.32
2017-10-13T07:02:52.753Z,94.32
2017-10-13T07:03:53.052Z,94.32
2017-10-13T07:04:53.031Z,94.32
2017-10-13T07:05:53.004Z,94.12
2017-10-13T07:06:53.035Z,94.32
2017-10-13T07:07:52.956Z,94.32
2017-10-13T07:08:52.934Z,94.32
2017-10-13T07:09:52.915Z,93.88
2017-10-13T07:10:52.903Z,93.88
2017-10-13T07:11:52.887Z,93.88
2017-10-13T07:12:52.841Z,94.17
2017-10-13T07:13:52.821Z,93.98
2017-10-13T07:14:52.801Z,93.88
2017-10-13T07:15:52.783Z,93.98
2017-10-13T07:16:52.752Z,93.88
2017-10-13T07:17:52.732Z,94.36
2017-10-13T07:18:52.716Z,93.98
2017-10-13T07:19:52.688Z,93.79
2017-10-13T07:20:52.354Z,93.98
2017-10-13T07:21:52.639Z,93.84
2017-10-13T07:22:52.622Z,94.12
2017-10-13T07:23:52.610Z,93.84
2017-10-13T07:24:52.256Z,94.03
2017-10-13T07:25:52.555Z,94.17
2017-10-13T07:26:52.533Z,93.31
2017-10-13T07:27:52.514Z,94.27
2017-10-13T07:28:52.167Z,93.79
2017-10-13T07:29:52.471Z,93.7
2017-10-13T07:30:52.445Z,93.88
2017-10-13T07:31:52.422Z,93.5
2017-10-13T07:32:52.406Z,93.41
2017-10-13T07:33:52.385Z,93.5
2017-10-13T07:34:52.354Z,93.5
2017-10-13T07:35:52.333Z,93.7
2017-10-13T07:36:52.315Z,93.79
2017-10-13T07:37:52.283Z,93.98
2017-10-13T07:38:52.265Z,93.79
2017-10-13T07:39:52.249Z,93.98
2017-10-13T07:40:51.901Z,93.79
2017-10-13T07:41:52.216Z,94.07
2017-10-13T07:42:52.187Z,93.98
2017-10-13T07:43:52.156Z,93.98
2017-10-13T07:44:52.133Z,93.98
2017-10-13T07:45:52.113Z,93.98
2017-10-13T07:46:52.091Z,93.98
2017-10-13T07:47:52.067Z,94.07
2017-10-13T07:48:52.049Z,94.07
2017-10-13T07:49:52.033Z,94.07
2017-10-13T07:50:52.003Z,93.98
2017-10-13T07:51:51.987Z,94.17
2017-10-13T07:52:51.962Z,94.17
2017-10-13T07:53:51.947Z,94.36
2017-10-13T07:54:51.606Z,94.36
2017-10-13T07:55:51.890Z,94.36
2017-10-13T07:56:51.871Z,94.36
2017-10-13T07:57:51.854Z,94.41
2017-10-13T07:58:51.827Z,94.22
2017-10-13T07:59:51.816Z,94.12
2017-10-13T08:00:51.791Z,94.31
2017-10-13T08:01:51.760Z,94.02
2017-10-13T08:02:51.738Z,93.93
2017-10-13T08:03:51.729Z,93.74
2017-10-13T08:04:51.694Z,93.84
2017-10-13T08:05:51.677Z,94.22
2017-10-13T08:06:51.658Z,93.84
2017-10-13T08:07:51.631Z,94.02
2017-10-13T08:08:51.617Z,93.45
2017-10-13T08:09:51.586Z,93.88
2017-10-13T08:10:51.580Z,93.88
2017-10-13T08:11:51.550Z,93.6
2017-10-13T08:12:51.529Z,93.79
2017-10-13T08:13:51.499Z,93.79
2017-10-13T08:14:51.479Z,94.36
2017-10-13T08:15:51.474Z,93.69
2017-10-13T08:16:51.447Z,94.07
2017-10-13T08:17:51.416Z,94.17
2017-10-13T08:18:51.399Z,94.46
2017-10-13T08:19:51.376Z,93.98
2017-10-13T08:20:51.353Z,93.5
2017-10-13T08:21:51.345Z,93.93
2017-10-13T08:22:51.305Z,94.02
2017-10-13T08:23:51.297Z,94.21
2017-10-13T08:24:51.265Z,93.74
2017-10-13T08:25:51.247Z,93.12
2017-10-13T08:26:51.225Z,93.3
2017-10-13T08:27:51.207Z,93.4
2017-10-13T08:28:51.184Z,93.83
2017-10-13T08:29:51.163Z,94.02
2017-10-13T08:30:51.146Z,93.16
2017-10-13T08:31:51.120Z,93.26
2017-10-13T08:32:51.096Z,93.3
2017-10-13T08:33:51.104Z,93.35
2017-10-13T08:34:51.062Z,93.06
2017-10-13T08:35:51.032Z,93.68
2017-10-13T08:36:51.035Z,93.01
2017-10-13T08:37:51.010Z,93.15
2017-10-13T08:38:50.974Z,92.77
2017-10-13T08:39:50.957Z,92.63
2017-10-13T08:40:50.974Z,92.72
2017-10-13T08:41:50.916Z,93.01
2017-10-13T08:42:50.898Z,92.63
2017-10-13T08:43:50.560Z,92.1
2017-10-13T08:44:50.858Z,92.29
2017-10-13T08:45:50.838Z,92.19
2017-10-13T08:46:50.826Z,92.19
2017-10-13T08:47:50.802Z,92.1
2017-10-13T08:48:50.784Z,92.29
2017-10-13T08:49:50.766Z,92.29
2017-10-13T08:50:50.742Z,91.42
2017-10-13T08:51:50.724Z,91.19
2017-10-13T08:52:50.713Z,91.86
2017-10-13T08:53:50.704Z,91.47
2017-10-13T08:54:50.667Z,91.57
2017-10-13T08:55:50.653Z,91.38
2017-10-13T08:56:50.629Z,91.57
2017-10-13T08:57:50.611Z,91.76
2017-10-13T08:58:50.589Z,91.52
2017-10-13T08:59:50.580Z,91.52
2017-10-13T09:00:50.549Z,91.52
2017-10-13T09:01:50.536Z,91.52
2017-10-13T09:02:50.515Z,91.33
2017-10-13T09:03:50.499Z,91.52
2017-10-13T09:04:50.478Z,92.39
2017-10-13T09:05:50.459Z,92
2017-10-13T09:06:50.438Z,92.1
2017-10-13T09:07:50.104Z,91.52
2017-10-13T09:09:50.376Z,92.19
2017-10-13T09:10:50.362Z,91.62
2017-10-13T09:11:50.337Z,91.28
2017-10-13T09:12:50.317Z,91.66
2017-10-13T09:13:49.979Z,90.99
2017-10-13T09:14:50.281Z,91.57
2017-10-13T09:15:50.264Z,91.38
2017-10-13T09:16:50.187Z,91.28
2017-10-13T09:17:50.228Z,91.19
2017-10-13T09:18:50.204Z,91.09
2017-10-13T09:19:49.860Z,90.99
2017-10-13T09:20:50.175Z,91.81
2017-10-13T09:21:50.147Z,91.81
2017-10-13T09:22:50.124Z,91.33
2017-10-13T09:23:50.104Z,91.48
2017-10-13T09:24:50.083Z,91.48
2017-10-13T09:25:50.087Z,91.96
2017-10-13T09:26:50.042Z,92.05
2017-10-13T09:27:50.031Z,91.77
2017-10-13T09:28:50.004Z,91.86
2017-10-13T09:29:49.995Z,91.96
2017-10-13T09:30:49.970Z,91.96
2017-10-13T09:31:49.942Z,91.67
2017-10-13T09:32:49.922Z,92.05
2017-10-13T09:33:49.907Z,91.96
2017-10-13T09:34:49.890Z,92.05
2017-10-13T09:35:49.860Z,91.86
2017-10-13T09:36:49.849Z,91.96
2017-10-13T09:37:49.831Z,92.05
2017-10-13T09:38:49.801Z,91.77
2017-10-13T09:39:49.783Z,91.77
2017-10-13T09:40:49.756Z,91.86
2017-10-13T09:41:49.745Z,91.96
2017-10-13T09:42:49.722Z,92.44
2017-10-13T09:43:49.704Z,92.05
2017-10-13T09:44:49.690Z,92.34
2017-10-13T09:45:49.657Z,91.96
2017-10-13T09:46:49.641Z,92.15
2017-10-13T09:47:49.622Z,92.24
2017-10-13T09:48:49.602Z,92.24
2017-10-13T09:49:49.584Z,91.96
2017-10-13T09:50:49.563Z,92.05
2017-10-13T09:51:49.543Z,91.77
2017-10-13T09:52:49.531Z,91.81
2017-10-13T09:53:49.512Z,92.1
2017-10-13T09:54:49.162Z,92
2017-10-13T09:55:49.464Z,92.19
2017-10-13T09:56:49.444Z,92.19
2017-10-13T09:57:49.420Z,91.91
2017-10-13T09:58:49.405Z,91.76
2017-10-13T09:59:49.383Z,91.62
2017-10-13T10:00:49.367Z,91.52
2017-10-13T10:01:49.345Z,91.33
2017-10-13T10:02:49.342Z,91.33
2017-10-13T10:03:49.302Z,91.52
2017-10-13T10:04:49.280Z,91.42
2017-10-13T10:05:49.263Z,91.72
2017-10-13T10:06:49.241Z,91.52
2017-10-13T10:07:49.221Z,91.42
2017-10-13T10:08:49.211Z,91.42
2017-10-13T10:09:49.185Z,91.52
2017-10-13T10:10:49.172Z,91.81
2017-10-13T10:11:49.156Z,91.42
2017-10-13T10:12:49.123Z,91.14
2017-10-13T10:13:49.114Z,91.62
2017-10-13T10:14:49.089Z,91.52
2017-10-13T10:15:49.068Z,91.14
2017-10-13T10:16:49.042Z,91.33
2017-10-13T10:17:48.722Z,91.52
2017-10-13T10:18:49.003Z,91.72
2017-10-13T10:19:48.984Z,91.33
2017-10-13T10:20:48.965Z,91.81
2017-10-13T10:21:48.943Z,91.48
2017-10-13T10:22:48.923Z,91.52
2017-10-13T10:23:48.914Z,91.48
2017-10-13T10:24:48.885Z,91.57
2017-10-13T10:25:48.861Z,91.28
2017-10-13T10:26:48.845Z,91.48
2017-10-13T10:27:48.828Z,91.28
2017-10-13T10:28:48.482Z,91.38
2017-10-13T10:29:48.785Z,91.48
2017-10-13T10:30:48.768Z,91.48
2017-10-13T10:31:48.741Z,91.28
2017-10-13T10:32:48.724Z,91.52
2017-10-13T10:33:48.701Z,91.52
2017-10-13T10:34:48.683Z,91.42
2017-10-13T10:35:48.660Z,91.52
2017-10-13T10:36:48.644Z,91.52
2017-10-13T10:37:48.619Z,91.72
2017-10-13T10:38:48.606Z,91.52
2017-10-13T10:39:48.259Z,91.14
2017-10-13T10:40:48.559Z,91.14
2017-10-13T10:41:48.533Z,91.24
2017-10-13T10:42:48.513Z,90.99
2017-10-13T10:43:48.498Z,91.19
2017-10-13T10:44:48.477Z,91.09
2017-10-13T10:45:48.456Z,91.47
2017-10-13T10:46:48.437Z,91.47
2017-10-13T10:47:48.415Z,91.47
2017-10-13T10:48:48.400Z,91.57
2017-10-13T10:49:48.375Z,90.9
2017-10-13T10:50:48.376Z,90.99
2017-10-13T10:51:48.334Z,91.57
2017-10-13T10:52:48.321Z,90.99
2017-10-13T10:53:48.295Z,91.38
2017-10-13T10:54:48.279Z,90.99
2017-10-13T10:55:48.269Z,90.8
2017-10-13T10:56:48.242Z,90.8
2017-10-13T10:57:48.214Z,90.99
2017-10-13T10:58:48.200Z,90.56
2017-10-13T10:59:48.191Z,90.99
2017-10-13T11:00:48.183Z,90.99
2017-10-13T11:01:48.142Z,90.99
2017-10-13T11:02:48.117Z,90.8
2017-10-13T11:03:48.099Z,90.8
2017-10-13T11:04:48.081Z,91.19
2017-10-13T11:05:48.060Z,90.8
2017-10-13T11:06:48.043Z,91.09
2017-10-13T11:07:48.014Z,91.19
2017-10-13T11:08:47.994Z,91.19
2017-10-13T11:09:47.981Z,90.99
2017-10-13T11:10:47.959Z,91.09
2017-10-13T11:11:47.937Z,91.19
2017-10-13T11:12:47.913Z,91.09
2017-10-13T11:13:47.895Z,90.9
2017-10-13T11:14:47.884Z,90.8
2017-10-13T11:15:47.538Z,90.9
2017-10-13T11:16:47.840Z,90.94
2017-10-13T11:17:47.821Z,91.04
2017-10-13T11:18:47.807Z,91.13
2017-10-13T11:19:47.784Z,91.23
2017-10-13T11:20:47.756Z,91.04
2017-10-13T11:21:47.419Z,90.94
2017-10-13T11:22:47.713Z,91.61
2017-10-13T11:23:47.696Z,90.99
2017-10-13T11:24:47.680Z,90.99
2017-10-13T11:25:47.662Z,90.84
2017-10-13T11:26:47.640Z,90.46
2017-10-13T11:27:47.623Z,90.27
2017-10-13T11:28:47.592Z,90.84
2017-10-13T11:29:47.577Z,90.46
2017-10-13T11:30:47.556Z,90.56
2017-10-13T11:31:47.543Z,90.37
2017-10-13T11:32:47.526Z,89.89
2017-10-13T11:33:47.500Z,90.27
2017-10-13T11:34:47.471Z,90.37
2017-10-13T11:35:47.463Z,90.51
2017-10-13T11:36:47.439Z,90.51
2017-10-13T11:37:47.446Z,90.51
2017-10-13T11:38:47.071Z,90.51
2017-10-13T11:39:47.377Z,90.6
2017-10-13T11:40:47.367Z,90.41
2017-10-13T11:41:47.350Z,90.51
2017-10-13T11:42:47.314Z,90.6
2017-10-13T11:43:47.304Z,90.51
2017-10-13T11:44:47.275Z,90.51
2017-10-13T11:45:47.277Z,90.51
2017-10-13T11:46:47.240Z,90.12
2017-10-13T11:47:47.218Z,90.12
2017-10-13T11:48:47.195Z,90.03
2017-10-13T11:49:47.182Z,90.12
2017-10-13T11:50:47.159Z,90.6
2017-10-13T11:51:47.141Z,90.03
2017-10-13T11:52:47.127Z,90.03
2017-10-13T11:53:47.100Z,90.51
2017-10-13T11:54:47.083Z,90.12
2017-10-13T11:55:46.741Z,90.03
2017-10-13T11:56:47.042Z,90.12
2017-10-13T11:57:46.704Z,89.54
2017-10-13T11:58:47.004Z,90.12
2017-10-13T11:59:46.984Z,89.74
2017-10-13T12:00:46.961Z,90.17
2017-10-13T12:01:46.956Z,90.22
2017-10-13T12:02:46.922Z,90.12
2017-10-13T12:03:46.581Z,90.03
2017-10-13T12:04:46.911Z,90.41
2017-10-13T12:05:46.861Z,89.74
2017-10-13T12:06:46.839Z,90.12
2017-10-13T12:07:46.826Z,89.93
2017-10-13T12:08:46.804Z,89.89
2017-10-13T12:09:46.781Z,89.74
2017-10-13T12:10:46.765Z,90.03
2017-10-13T12:11:46.757Z,89.6
2017-10-13T12:12:46.722Z,89.6
2017-10-13T12:13:46.383Z,89.93
2017-10-13T12:14:46.680Z,89.79
2017-10-13T12:15:46.663Z,90.12
2017-10-13T12:16:46.638Z,90.08
2017-10-13T12:17:46.620Z,90.08
2017-10-13T12:18:46.601Z,90.27
2017-10-13T12:19:46.261Z,90.08
2017-10-13T12:20:46.577Z,89.5
2017-10-13T12:21:46.542Z,90.08
2017-10-13T12:22:46.518Z,89.79
2017-10-13T12:23:46.534Z,90.12
2017-10-13T12:24:46.479Z,89.98
2017-10-13T12:25:46.467Z,89.93
2017-10-13T12:26:46.427Z,90.08
2017-10-13T12:27:46.423Z,90.17
2017-10-13T12:28:46.405Z,89.93
2017-10-13T12:29:46.376Z,90.12
2017-10-13T12:30:46.363Z,89.98
2017-10-13T12:31:46.347Z,89.93
2017-10-13T12:32:46.318Z,89.98
2017-10-13T12:33:46.297Z,89.83
2017-10-13T12:34:46.278Z,89.93
2017-10-13T12:35:46.260Z,89.89
2017-10-13T12:36:46.240Z,90.31
2017-10-13T12:37:46.217Z,90.22
2017-10-13T12:38:46.203Z,90.12
2017-10-13T12:39:46.186Z,89.64
2017-10-13T12:40:46.177Z,90.22
2017-10-13T12:41:46.139Z,90.22
2017-10-13T12:42:46.117Z,90.03
2017-10-13T12:43:46.096Z,89.93
2017-10-13T12:44:46.078Z,90.03
2017-10-13T12:45:46.067Z,89.93
2017-10-13T12:46:46.038Z,89.93
2017-10-13T12:47:46.024Z,89.93
2017-10-13T12:48:46.003Z,89.64
2017-10-13T12:49:45.985Z,89.93
2017-10-13T12:50:45.957Z,89.74
2017-10-13T12:51:45.934Z,89.64
2017-10-13T12:52:45.931Z,89.64
2017-10-13T12:53:45.895Z,89.74
2017-10-13T12:54:45.876Z,89.74